Time;durP1;ratioP1;P1;durP2;ratioP2;P2;SDS_P1;SDS_P2;PMS_P1;PMS_P2;Temp;Humidity;BMP_temperature;BMP_pressure;BME280_temperature;BME280_humidity;BME280_pressure;Samples;Min_cycle;Max_cycle;Signal;HPM_P1;HPM_P2
2022/05/23 00:01:43;;;;;;;;;8.00;6.50;;;;;20.08;56.15;100169.78;5079545;27;45266;-49
2022/05/23 00:04:08;;;;;;;;;5.50;5.50;;;;;20.08;56.90;100178.69;5079702;28;45245;-52
2022/05/23 00:06:34;;;;;;;;;2.25;2.00;;;;;20.06;56.36;100163.78;5079254;27;47121;-51
2022/05/23 00:08:59;;;;;;;;;4.00;4.00;;;;;19.99;56.97;100161.16;5079588;27;45321;-51
2022/05/23 00:11:25;;;;;;;;;5.75;5.75;;;;;19.99;56.43;100153.03;5079398;28;45440;-53
2022/05/23 00:13:50;;;;;;;;;4.75;4.00;;;;;19.97;57.12;100159.69;5079624;28;45313;-50
2022/05/23 00:16:19;;;;;;;;;6.50;5.50;;;;;19.92;57.54;100155.78;5078385;27;46299;-48
2022/05/23 00:18:44;;;;;;;;;5.00;5.00;;;;;19.94;57.37;100156.41;5079148;27;45333;-47
2022/05/23 00:21:10;;;;;;;;;4.50;4.50;;;;;19.92;57.55;100160.38;5079275;28;45339;-50
2022/05/23 00:23:35;;;;;;;;;5.00;5.00;;;;;19.96;57.38;100144.56;5079450;28;45478;-47
2022/05/23 00:26:01;;;;;;;;;5.25;5.00;;;;;19.99;56.86;100152.22;5079102;28;46225;-48
2022/05/23 00:28:26;;;;;;;;;5.00;5.00;;;;;19.97;56.75;100144.31;5079318;28;45274;-48
2022/05/23 00:30:51;;;;;;;;;5.75;3.00;;;;;19.93;56.96;100138.56;5079318;27;45377;-47
2022/05/23 00:36:00;;;;;;;;;4.75;4.75;;;;;19.94;56.59;100117.81;5078880;28;45337;-48
2022/05/23 00:38:26;;;;;;;;;6.50;4.50;;;;;19.91;57.08;100115.53;5078772;28;45192;-46
2022/05/23 00:43:50;;;;;;;;;6.75;4.00;;;;;19.90;57.09;100103.91;5079229;28;45478;-50
2022/05/23 00:46:15;;;;;;;;;4.00;4.00;;;;;19.94;56.69;100104.31;5078889;27;47138;-52
2022/05/23 00:48:41;;;;;;;;;5.75;5.75;;;;;19.94;57.04;100096.19;5078583;28;45289;-51
2022/05/23 00:51:15;;;;;;;;;5.25;5.00;;;;;19.90;57.10;100086.91;5078884;28;45422;-48
2022/05/23 00:53:48;;;;;;;;;3.00;3.00;;;;;19.95;57.01;100095.16;5079119;27;45665;-51
2022/05/23 00:56:15;;;;;;;;;4.50;4.25;;;;;19.96;56.68;100090.56;5078639;27;45267;-53
2022/05/23 00:58:45;;;;;;;;;5.75;5.00;;;;;19.97;56.60;100086.81;5078619;28;45522;-49
2022/05/23 01:01:14;;;;;;;;;4.00;4.00;;;;;19.96;56.98;100088.69;5078821;27;45385;-48
2022/05/23 01:03:40;;;;;;;;;4.25;4.25;;;;;19.93;57.07;100089.13;5078840;27;45476;-51
2022/05/23 01:06:07;;;;;;;;;4.00;4.00;;;;;19.93;56.96;100099.94;5078223;28;46105;-52
2022/05/23 01:08:38;;;;;;;;;4.50;3.00;;;;;19.92;56.95;100085.59;5078218;27;45461;-49
2022/05/23 01:11:04;;;;;;;;;3.75;3.75;;;;;19.86;56.92;100061.41;5078388;28;45176;-48
2022/05/23 01:13:30;;;;;;;;;3.00;3.00;;;;;19.88;56.66;100045.78;5078635;27;45176;-50
2022/05/23 01:15:55;;;;;;;;;5.00;3.00;;;;;19.80;57.09;100040.69;5078176;27;45205;-50
2022/05/23 01:18:21;;;;;;;;;4.75;4.75;;;;;19.85;57.02;100032.78;5078131;28;45941;-47
2022/05/23 01:20:55;;;;;;;;;4.50;4.00;;;;;19.86;56.73;100031.72;5078368;28;45707;-50
2022/05/23 01:23:31;;;;;;;;;4.00;4.00;;;;;19.85;57.40;100019.28;5078564;27;45436;-47
2022/05/23 01:25:56;;;;;;;;;4.75;4.00;;;;;19.80;57.40;100008.31;5078063;28;46690;-48
2022/05/23 01:28:22;;;;;;;;;6.75;5.25;;;;;19.78;56.91;99999.63;5078049;27;45456;-47
2022/05/23 01:30:47;;;;;;;;;5.50;4.00;;;;;19.76;57.24;99991.72;5078148;28;45466;-47
2022/05/23 01:33:14;;;;;;;;;3.00;3.00;;;;;19.75;57.58;99991.97;5078474;28;45355;-52
2022/05/23 01:35:40;;;;;;;;;4.75;4.75;;;;;19.71;57.35;99983.50;5077872;27;45379;-50
2022/05/23 01:38:05;;;;;;;;;4.75;4.75;;;;;19.73;57.48;99994.09;5077879;27;45449;-47
2022/05/23 01:40:32;;;;;;;;;3.25;3.25;;;;;19.73;57.77;99996.78;5078352;28;45272;-48
2022/05/23 01:42:58;;;;;;;;;5.00;3.75;;;;;19.68;57.87;99990.19;5078102;28;45221;-50
2022/05/23 01:45:37;;;;;;;;;3.50;3.50;;;;;19.66;57.57;99978.78;5077837;27;46323;-48
2022/05/23 01:48:04;;;;;;;;;6.75;3.25;;;;;19.67;57.78;99960.72;5077893;27;45470;-51
2022/05/23 01:50:30;;;;;;;;;5.50;3.75;;;;;19.64;57.69;99950.38;5077982;27;45288;-50
2022/05/23 01:52:58;;;;;;;;;5.00;4.75;;;;;19.62;57.82;99944.38;5077836;28;45332;-49
2022/05/23 01:55:24;;;;;;;;;5.00;4.00;;;;;19.56;57.41;99943.38;5077757;27;45355;-50
2022/05/23 01:57:50;;;;;;;;;4.00;3.25;;;;;19.59;57.45;99947.50;5077663;27;45340;-48
2022/05/23 02:03:00;;;;;;;;;4.75;3.75;;;;;19.52;57.99;99936.78;5078083;28;45464;-48
2022/05/23 02:05:27;;;;;;;;;4.50;3.50;;;;;19.54;57.67;99941.94;5077326;28;45996;-49
2022/05/23 02:07:53;;;;;;;;;4.00;3.00;;;;;19.52;57.90;99938.66;5077569;27;45518;-49
2022/05/23 02:10:19;;;;;;;;;5.25;4.00;;;;;19.52;57.93;99934.09;5077720;27;45199;-49
2022/05/23 02:12:44;;;;;;;;;5.50;5.00;;;;;19.44;57.99;99910.94;5077589;28;45427;-48
2022/05/23 02:15:10;;;;;;;;;3.75;3.75;;;;;19.47;57.83;99925.00;5077287;28;45486;-52
2022/05/23 02:17:36;;;;;;;;;7.25;5.25;;;;;19.48;57.93;99940.16;5077667;28;45360;-50
2022/05/23 02:20:02;;;;;;;;;4.00;4.00;;;;;19.45;57.74;99944.13;5077560;28;45480;-50
2022/05/23 02:22:27;;;;;;;;;4.00;4.00;;;;;19.44;57.91;99939.78;5077583;27;45404;-48
2022/05/23 02:24:53;;;;;;;;;2.00;2.00;;;;;19.47;58.03;99955.53;5077375;28;46148;-51
2022/05/23 02:27:18;;;;;;;;;4.50;4.50;;;;;19.48;57.88;99953.66;5077651;27;45268;-48
2022/05/23 02:29:44;;;;;;;;;5.00;5.00;;;;;19.48;58.08;99962.56;5077871;28;45309;-47
2022/05/23 02:32:10;;;;;;;;;6.00;4.67;;;;;19.45;58.03;99955.72;5077540;27;45487;-48
2022/05/23 02:34:36;;;;;;;;;5.00;5.00;;;;;19.40;58.18;99946.69;5077401;27;45430;-52
2022/05/23 02:37:01;;;;;;;;;4.00;4.00;;;;;19.43;58.09;99957.03;5077165;28;45496;-51
2022/05/23 02:39:26;;;;;;;;;4.00;4.00;;;;;19.42;57.89;99969.69;5079100;28;45370;-50
2022/05/23 02:41:52;;;;;;;;;5.75;4.25;;;;;19.42;57.87;99971.53;5081114;28;45380;-49
2022/05/23 02:44:18;;;;;;;;;5.25;4.00;;;;;19.34;58.20;99969.13;5080783;28;46266;-51
2022/05/23 02:46:43;;;;;;;;;4.75;3.00;;;;;19.35;58.26;99955.44;5080820;27;45514;-49
2022/05/23 02:49:09;;;;;;;;;4.00;4.00;;;;;19.39;58.08;99958.53;5079464;28;45413;-50
2022/05/23 02:51:34;;;;;;;;;6.50;5.00;;;;;19.38;58.29;99960.41;5081088;28;45539;-47
2022/05/23 02:54:00;;;;;;;;;4.00;4.00;;;;;19.41;58.46;99951.00;5080320;28;46923;-49
2022/05/23 02:56:25;;;;;;;;;3.75;3.75;;;;;19.39;58.31;99947.72;5079967;28;45534;-48
2022/05/23 02:58:51;;;;;;;;;3.50;3.50;;;;;19.37;58.22;99944.41;5080778;28;45677;-49
2022/05/23 03:01:17;;;;;;;;;3.00;3.00;;;;;19.42;58.59;99945.41;5080814;28;45373;-52
2022/05/23 03:03:42;;;;;;;;;3.25;3.25;;;;;19.46;58.48;99959.25;5080599;27;47184;-50
2022/05/23 03:06:08;;;;;;;;;2.75;2.25;;;;;19.48;58.43;99957.16;5080460;28;45349;-48
2022/05/23 03:08:35;;;;;;;;;5.25;3.00;;;;;19.49;58.22;99956.13;5080488;27;45417;-50
2022/05/23 03:11:03;;;;;;;;;3.75;3.75;;;;;19.49;58.26;99975.00;5080996;27;45341;-54
2022/05/23 03:13:29;;;;;;;;;7.00;3.50;;;;;19.49;58.11;99984.97;5080213;28;46318;-50
2022/05/23 03:15:55;;;;;;;;;7.75;5.00;;;;;19.51;58.27;99988.25;5079954;27;45623;-48
2022/05/23 03:18:23;;;;;;;;;5.50;4.75;;;;;19.41;57.97;99969.88;5080591;27;45399;-48
2022/05/23 03:20:54;;;;;;;;;3.00;3.00;;;;;19.51;57.70;99989.09;5080505;27;45572;-49
2022/05/23 03:28:49;;;;;;;;;4.25;4.25;;;;;19.49;58.15;99952.59;5080505;28;45422;-48
2022/05/23 03:31:14;;;;;;;;;6.25;5.00;;;;;19.51;58.21;99954.03;5080332;28;45427;-47
2022/05/23 03:33:40;;;;;;;;;4.50;4.00;;;;;19.52;58.01;99941.38;5080090;28;45449;-49
2022/05/23 03:36:08;;;;;;;;;2.75;2.00;;;;;19.53;58.24;99943.00;5079904;28;45337;-50
2022/05/23 03:38:35;;;;;;;;;10.00;6.67;;;;;19.50;58.15;99928.09;5079833;28;45461;-50
2022/05/23 03:41:06;;;;;;;;;5.25;5.00;;;;;19.44;57.80;99902.84;5078881;28;45542;-49
2022/05/23 03:43:31;;;;;;;;;13.00;8.00;;;;;19.52;57.96;99899.03;5079929;27;45454;-50
2022/05/23 03:46:04;;;;;;;;;11.00;8.00;;;;;19.46;57.61;99894.50;5079712;28;45439;-47
2022/05/23 03:48:29;;;;;;;;;13.00;10.00;;;;;19.41;59.23;99914.06;5079974;27;45483;-55
2022/05/23 03:50:55;;;;;;;;;9.00;9.00;;;;;19.35;59.27;99912.28;5080122;28;45436;-49
2022/05/23 03:53:20;;;;;;;;;10.00;10.00;;;;;19.34;59.50;99912.50;5079308;28;45518;-51
2022/05/23 03:55:46;;;;;;;;;10.00;9.67;;;;;19.33;59.72;99908.16;5078360;28;45472;-50
2022/05/23 03:58:11;;;;;;;;;9.00;8.00;;;;;19.28;60.40;99908.00;5079677;28;45274;-49
2022/05/23 04:00:37;;;;;;;;;14.00;12.00;;;;;19.23;60.54;99905.16;5079958;28;45159;-50
2022/05/23 04:03:02;;;;;;;;;8.67;8.00;;;;;19.12;60.30;99909.41;5079408;28;45451;-54
2022/05/23 04:05:28;;;;;;;;;7.00;5.00;;;;;19.08;60.90;99913.59;5079385;28;45312;-51
2022/05/23 04:07:53;;;;;;;;;7.00;5.67;;;;;18.94;61.41;99908.34;5079824;28;45217;-48
2022/05/23 04:10:22;;;;;;;;;6.00;6.00;;;;;18.98;61.23;99899.81;5079665;27;45569;-56
2022/05/23 04:12:47;;;;;;;;;7.00;7.00;;;;;18.99;61.44;99882.59;5079582;28;46585;-50
2022/05/23 04:15:14;;;;;;;;;9.00;6.00;;;;;18.91;61.02;99862.13;5079353;28;45362;-52
2022/05/23 04:17:39;;;;;;;;;6.33;6.00;;;;;19.03;60.88;99868.44;5079290;28;45364;-53
2022/05/23 04:20:08;;;;;;;;;6.00;5.00;;;;;19.04;61.07;99874.66;5079571;28;45498;-49
2022/05/23 04:22:34;;;;;;;;;7.00;5.00;;;;;18.97;60.81;99860.44;5079071;27;46187;-48
2022/05/23 04:24:59;;;;;;;;;7.33;6.33;;;;;19.06;60.98;99864.50;5077603;28;45377;-50
2022/05/23 04:27:25;;;;;;;;;7.00;6.33;;;;;19.07;60.35;99863.44;5079454;28;45473;-49
2022/05/23 04:29:50;;;;;;;;;9.00;7.00;;;;;19.06;62.01;99848.31;5079257;27;45371;-51
2022/05/23 04:35:14;;;;;;;;;7.67;4.67;;;;;19.01;62.45;99832.81;5079066;28;45270;-51
2022/05/23 04:37:45;;;;;;;;;6.33;6.00;;;;;18.97;62.80;99820.84;5079132;28;45371;-51
2022/05/23 04:40:13;;;;;;;;;6.33;6.33;;;;;18.93;62.98;99808.84;5078982;27;45452;-53
2022/05/23 04:42:39;;;;;;;;;8.00;6.00;;;;;18.96;62.98;99800.31;5078682;28;46290;-54
2022/05/23 04:45:06;;;;;;;;;6.00;5.67;;;;;18.88;63.60;99776.38;5078687;27;45340;-51
2022/05/23 04:50:15;;;;;;;;;7.67;5.33;;;;;18.88;63.41;99827.56;5078677;28;45279;-49
2022/05/23 04:52:40;;;;;;;;;6.33;5.00;;;;;18.87;63.75;99824.03;5078647;28;47290;-52
2022/05/23 04:55:08;;;;;;;;;5.67;5.00;;;;;18.95;63.99;99831.00;5078348;28;45351;-53
2022/05/23 04:57:34;;;;;;;;;7.00;5.33;;;;;18.99;63.91;99834.06;5078826;27;45396;-50
2022/05/23 05:00:00;;;;;;;;;8.00;4.33;;;;;19.02;64.35;99839.84;5078904;27;45365;-49
2022/05/23 05:02:25;;;;;;;;;7.67;7.67;;;;;19.05;63.33;99835.91;5077856;27;45960;-52
2022/05/23 05:04:50;;;;;;;;;6.00;6.00;;;;;19.06;63.76;99818.66;5078207;27;45231;-50
2022/05/23 05:07:16;;;;;;;;;5.67;5.67;;;;;19.06;64.15;99803.31;5078581;27;45188;-50
2022/05/23 05:09:41;;;;;;;;;7.00;6.33;;;;;19.08;64.14;99803.06;5078517;27;45456;-48
2022/05/23 05:12:07;;;;;;;;;7.33;7.33;;;;;19.07;63.49;99798.75;5078431;27;46165;-49
2022/05/23 05:14:34;;;;;;;;;6.67;5.67;;;;;19.02;63.92;99794.03;5077928;28;45493;-50
2022/05/23 05:17:00;;;;;;;;;7.00;5.67;;;;;18.99;63.06;99786.38;5078453;27;45332;-53
2022/05/23 05:19:25;;;;;;;;;7.33;6.00;;;;;18.94;64.41;99784.38;5078391;28;45451;-49
2022/05/23 05:21:51;;;;;;;;;8.00;7.00;;;;;18.93;64.66;99795.38;5078018;28;46046;-53
2022/05/23 05:24:17;;;;;;;;;8.33;6.00;;;;;18.91;64.68;99800.16;5078008;27;45399;-50
2022/05/23 05:26:43;;;;;;;;;5.33;5.33;;;;;18.89;63.71;99797.69;5078131;28;45425;-53
2022/05/23 05:29:08;;;;;;;;;9.00;6.00;;;;;18.88;64.31;99785.28;5078338;27;45297;-49
2022/05/23 05:32:06;;;;;;;;;5.67;5.33;;;;;18.90;63.30;99791.25;5077762;28;45371;-49
2022/05/23 05:34:57;;;;;;;;;6.00;5.67;;;;;19.02;63.93;99788.63;5055510;28;45340;-51
2022/05/23 05:37:29;;;;;;;;;8.00;6.33;;;;;19.11;64.17;99800.75;5055749;28;45343;-49
2022/05/23 05:39:55;;;;;;;;;6.00;6.00;;;;;19.18;64.16;99808.78;5055443;28;45469;-48
2022/05/23 05:42:26;;;;;;;;;6.67;6.67;;;;;19.26;63.77;99818.44;5055299;28;47153;-48
2022/05/23 05:45:06;;;;;;;;;9.00;7.00;;;;;19.22;64.14;99801.06;5055250;28;45511;-50
2022/05/23 05:47:36;;;;;;;;;8.00;6.33;;;;;19.50;63.76;99814.78;5055376;28;45312;-48
2022/05/23 05:50:09;;;;;;;;;5.33;5.00;;;;;19.49;63.48;99791.56;5055394;28;45286;-48
2022/05/23 05:52:35;;;;;;;;;7.00;6.33;;;;;19.71;63.37;99801.88;5055289;28;46131;-50
2022/05/23 05:55:03;;;;;;;;;8.00;5.00;;;;;19.86;63.10;99805.81;5055039;28;45353;-50
2022/05/23 05:57:28;;;;;;;;;8.25;8.00;;;;;20.09;62.17;99777.22;5055133;28;45318;-48
2022/05/23 05:59:54;;;;;;;;;8.00;6.25;;;;;20.29;61.46;99785.00;5055504;28;45535;-51
2022/05/23 06:02:19;;;;;;;;;7.00;7.00;;;;;20.56;60.78;99791.63;5055137;28;46028;-54
2022/05/23 06:04:45;;;;;;;;;8.75;5.25;;;;;20.78;60.27;99791.03;5054722;28;45452;-49
2022/05/23 06:12:48;;;;;;;;;9.00;7.75;;;;;20.37;61.69;99798.97;5071277;28;45914;-50
2022/05/23 06:15:13;;;;;;;;;9.00;7.75;;;;;20.32;61.43;99803.44;5071385;28;45411;-51
2022/05/23 06:17:42;;;;;;;;;9.00;8.50;;;;;20.27;61.73;99814.97;5072731;28;45284;-53
2022/05/23 06:20:09;;;;;;;;;9.25;8.00;;;;;20.09;61.13;99801.53;5073299;28;45229;-49
2022/05/23 06:22:34;;;;;;;;;6.75;5.00;;;;;20.03;62.25;99815.97;5072944;28;47678;-52
2022/05/23 06:25:02;;;;;;;;;8.67;8.67;;;;;19.93;62.06;99805.69;5076359;28;45250;-50
2022/05/23 06:27:27;;;;;;;;;9.00;8.33;;;;;19.86;63.12;99805.00;5076383;28;45357;-48
2022/05/23 06:29:53;;;;;;;;;7.67;7.67;;;;;19.80;63.19;99792.41;5077430;28;45475;-52
2022/05/23 06:32:18;;;;;;;;;7.67;7.67;;;;;19.80;62.87;99776.22;5076584;28;46126;-50
2022/05/23 06:34:44;;;;;;;;;7.67;7.67;;;;;19.77;62.97;99766.72;5076835;28;45424;-50
2022/05/23 06:37:09;;;;;;;;;9.00;7.75;;;;;19.75;63.95;99757.19;5077181;28;45408;-50
2022/05/23 06:39:34;;;;;;;;;12.33;9.00;;;;;19.73;64.16;99749.34;5076968;28;45365;-51
2022/05/23 06:41:59;;;;;;;;;9.67;8.00;;;;;19.72;64.01;99753.09;5076908;28;47245;-49
2022/05/23 06:44:25;;;;;;;;;7.00;7.00;;;;;19.71;64.30;99756.03;5076831;28;45285;-51
2022/05/23 06:46:50;;;;;;;;;9.25;8.00;;;;;19.66;64.00;99740.53;5076997;28;45419;-53
2022/05/23 06:49:15;;;;;;;;;7.00;6.75;;;;;19.71;63.93;99759.53;5077246;28;45375;-52
2022/05/23 06:51:42;;;;;;;;;9.00;6.75;;;;;19.67;64.04;99759.16;5076817;28;47174;-53
2022/05/23 06:54:07;;;;;;;;;8.00;8.00;;;;;19.67;64.64;99759.16;5077165;28;45286;-51
2022/05/23 06:56:33;;;;;;;;;8.00;6.00;;;;;19.62;65.45;99742.03;5076641;28;45396;-52
2022/05/23 06:58:58;;;;;;;;;7.00;7.00;;;;;19.72;65.35;99746.88;5058973;28;45345;-50
2022/05/23 07:01:24;;;;;;;;;9.00;7.33;;;;;19.73;65.02;99753.94;5076638;28;46083;-49
2022/05/23 07:03:49;;;;;;;;;8.00;8.00;;;;;19.68;64.87;99747.34;5075812;28;45206;-54
2022/05/23 07:12:28;;;;;;;;;10.33;10.33;;;;;19.62;66.06;99748.25;5081675;27;45429;-52
2022/05/23 07:14:27;;;;;;;;;10.67;9.00;;;;;19.63;65.42;99738.28;5075033;27;45194;-50
2022/05/23 07:16:54;;;;;;;;;12.67;9.33;;;;;19.62;65.36;99752.81;5084296;27;45317;-53
2022/05/23 07:19:20;;;;;;;;;12.50;11.00;;;;;19.57;66.82;99753.47;5086445;27;45407;-51
2022/05/23 07:21:45;;;;;;;;;8.67;8.67;;;;;19.59;64.57;99759.50;5061791;27;46345;-51
2022/05/23 07:24:11;;;;;;;;;14.00;7.67;;;;;19.57;65.61;99744.56;5084438;27;45393;-52
2022/05/23 07:26:37;;;;;;;;;12.00;10.33;;;;;19.69;66.40;99742.78;5084415;27;45319;-51
2022/05/23 07:29:03;;;;;;;;;11.00;9.00;;;;;19.74;66.31;99763.66;5088953;27;45337;-51
2022/05/23 07:31:29;;;;;;;;;9.67;9.67;;;;;19.67;65.62;99771.84;5088035;27;46012;-50
2022/05/23 07:33:54;;;;;;;;;11.00;10.67;;;;;19.55;65.88;99768.25;5089403;27;45290;-49
2022/05/23 07:36:20;;;;;;;;;11.33;10.67;;;;;19.50;67.27;99747.34;5088063;27;45444;-50
2022/05/23 07:38:45;;;;;;;;;12.67;11.33;;;;;19.48;66.07;99752.16;5088761;27;45380;-49
2022/05/23 07:41:11;;;;;;;;;10.67;8.67;;;;;19.56;66.15;99770.72;5089408;27;47195;-51
2022/05/23 07:43:39;;;;;;;;;13.00;12.00;;;;;19.52;67.14;99753.34;5084256;27;45358;-51
2022/05/23 07:46:09;;;;;;;;;11.00;10.33;;;;;19.66;66.83;99752.13;5088880;27;45274;-51
2022/05/23 07:48:37;;;;;;;;;16.00;8.67;;;;;20.24;67.04;99715.50;5087712;27;45473;-48
2022/05/23 07:51:03;;;;;;;;;10.00;10.00;;;;;21.32;64.66;99700.50;5088793;27;46458;-49
2022/05/23 08:01:40;;;;;;;;;12.25;11.50;;;;;21.94;61.25;99683.38;5084389;27;45769;-51
2022/05/23 08:04:08;;;;;;;;;16.25;12.00;;;;;21.92;61.92;99694.47;5087810;27;45496;-48
2022/05/23 08:06:34;;;;;;;;;15.50;12.00;;;;;21.67;61.79;99704.91;5085798;27;45347;-49
2022/05/23 08:08:59;;;;;;;;;13.75;12.25;;;;;21.33;63.21;99682.38;5089479;27;45418;-51
2022/05/23 08:11:24;;;;;;;;;12.00;11.75;;;;;21.31;63.39;99692.56;5089509;27;45976;-51
2022/05/23 08:13:54;;;;;;;;;10.50;9.50;;;;;21.37;63.89;99692.47;5095182;27;45286;-50
2022/05/23 08:16:19;;;;;;;;;13.25;12.75;;;;;21.52;63.80;99680.25;5093872;27;45202;-50
2022/05/23 08:18:44;;;;;;;;;14.75;13.00;;;;;21.55;63.95;99668.97;5095431;27;45327;-51
2022/05/23 08:21:10;;;;;;;;;15.00;10.25;;;;;21.65;64.90;99679.94;5093432;27;45747;-51
2022/05/23 08:23:36;;;;;;;;;15.00;15.00;;;;;21.63;63.78;99691.03;5090252;27;45321;-52
2022/05/23 08:26:02;;;;;;;;;19.75;13.50;;;;;21.39;65.55;99693.03;5089174;27;45628;-50
2022/05/23 08:28:28;;;;;;;;;14.50;12.50;;;;;21.18;64.48;99702.63;5089173;27;45306;-52
2022/05/23 08:30:54;;;;;;;;;10.25;10.25;;;;;20.95;65.66;99710.84;5068694;27;46427;-52
2022/05/23 08:33:19;;;;;;;;;8.50;8.50;;;;;20.79;66.02;99706.19;5088796;27;45463;-50
2022/05/23 08:35:45;;;;;;;;;8.50;8.50;;;;;20.73;65.16;99715.22;5088178;27;45439;-48
2022/05/23 08:38:10;;;;;;;;;9.50;8.75;;;;;20.70;67.51;99721.13;5086409;27;45183;-51
2022/05/23 08:41:11;;;;;;;;;8.75;8.75;;;;;20.75;67.03;99713.13;5088579;27;45579;-51
2022/05/23 08:43:36;;;;;;;;;14.25;9.25;;;;;20.96;66.28;99707.06;5009163;28;45418;-52
2022/05/23 08:46:02;;;;;;;;;7.00;7.00;;;;;21.23;65.66;99701.91;5005388;28;45347;-50
2022/05/23 08:48:43;;;;;;;;;8.25;8.00;;;;;21.38;65.26;99704.09;5005233;28;45270;-51
2022/05/23 08:51:22;;;;;;;;;9.00;9.00;;;;;21.50;65.15;99710.28;5008891;28;46171;-49
2022/05/23 08:54:06;;;;;;;;;12.75;10.25;;;;;21.51;64.26;99717.31;5009049;28;45461;-49
2022/05/23 08:56:39;;;;;;;;;8.50;8.50;;;;;21.46;64.35;99711.84;5011670;28;45556;-54
2022/05/23 08:59:18;;;;;;;;;10.50;8.25;;;;;21.33;64.31;99712.13;5009466;28;45487;-50
2022/05/23 09:01:48;;;;;;;;;13.00;10.25;;;;;21.23;65.00;99714.59;5008734;28;46238;-50
2022/05/23 09:04:22;;;;;;;;;13.50;10.50;;;;;21.16;64.27;99701.25;5005993;28;45495;-49
2022/05/23 09:06:49;;;;;;;;;11.00;9.25;;;;;21.12;64.63;99706.31;5005789;28;45520;-51
2022/05/23 09:09:18;;;;;;;;;12.00;9.25;;;;;21.09;64.52;99725.72;5004643;28;45514;-50
2022/05/23 09:11:47;;;;;;;;;12.75;8.75;;;;;21.10;64.11;99726.53;5012130;28;47415;-48
2022/05/23 09:14:16;;;;;;;;;13.75;11.25;;;;;21.10;64.23;99724.63;5017670;28;46138;-52
2022/05/23 09:16:46;;;;;;;;;11.00;11.00;;;;;21.05;64.09;99723.72;5015111;28;45623;-47
2022/05/23 09:19:39;;;;;;;;;12.25;11.25;;;;;20.96;63.84;99727.88;5014466;28;45514;-51
2022/05/23 09:22:15;;;;;;;;;10.00;10.00;;;;;20.87;63.89;99716.63;5063582;28;46192;-48
2022/05/23 09:24:57;;;;;;;;;16.75;15.25;;;;;20.86;64.26;99712.28;5062722;28;45420;-53
2022/05/23 09:27:35;;;;;;;;;12.50;11.75;;;;;20.89;64.13;99723.41;5063323;28;45381;-51
2022/05/23 09:30:02;;;;;;;;;12.50;11.25;;;;;20.99;64.19;99720.13;5063443;28;45299;-49
2022/05/23 09:32:34;;;;;;;;;14.00;13.00;;;;;21.08;63.41;99718.66;5067349;28;46330;-50
2022/05/23 09:35:04;;;;;;;;;11.00;10.75;;;;;21.16;62.71;99710.16;5062782;28;45438;-51
2022/05/23 09:37:36;;;;;;;;;12.75;11.00;;;;;21.25;62.26;99713.31;5067782;28;45474;-52
2022/05/23 09:40:03;;;;;;;;;12.00;10.75;;;;;21.33;62.07;99709.44;5063522;28;45257;-49
2022/05/23 09:48:19;;;;;;;;;17.00;13.75;;;;;21.82;60.66;99701.59;5062474;28;45479;-52
2022/05/23 09:50:53;;;;;;;;;14.00;12.50;;;;;21.84;60.49;99710.31;5067050;28;45668;-50
2022/05/23 09:53:32;;;;;;;;;17.00;14.00;;;;;21.82;60.33;99707.84;5062159;28;46220;-49
2022/05/23 09:56:34;;;;;;;;;13.25;13.00;;;;;21.80;60.54;99703.75;5062196;28;45393;-48
2022/05/23 09:59:06;;;;;;;;;17.75;14.25;;;;;21.75;60.08;99711.78;5056582;28;45363;-50
2022/05/23 10:01:33;;;;;;;;;13.67;13.00;;;;;21.65;60.19;99718.66;5067863;28;45461;-50
2022/05/23 10:03:59;;;;;;;;;13.75;13.75;;;;;21.67;60.25;99708.41;5062113;28;47064;-53
2022/05/23 10:06:40;;;;;;;;;15.50;12.50;;;;;21.88;59.66;99706.06;5066759;28;45475;-50
2022/05/23 10:09:08;;;;;;;;;17.25;14.50;;;;;21.83;59.52;99687.84;5063466;28;45254;-51
2022/05/23 10:11:36;;;;;;;;;13.50;13.50;;;;;21.83;59.43;99712.22;5067385;28;45479;-51
2022/05/23 10:14:07;;;;;;;;;15.25;11.75;;;;;21.66;59.62;99698.66;5064686;28;47131;-53
2022/05/23 10:16:48;;;;;;;;;17.75;15.50;;;;;21.56;59.48;99690.34;5067410;28;45250;-51
2022/05/23 10:19:31;;;;;;;;;15.75;13.75;;;;;21.56;59.81;99693.06;5067730;28;45328;-51
2022/05/23 10:22:05;;;;;;;;;20.50;15.25;;;;;21.49;59.70;99697.81;5064674;28;45500;-51
2022/05/23 10:24:35;;;;;;;;;17.00;14.25;;;;;21.41;60.08;99712.56;5067200;28;46179;-51
2022/05/23 10:27:07;;;;;;;;;18.00;15.75;;;;;21.41;60.00;99703.63;5062123;28;45337;-51
2022/05/23 10:29:52;;;;;;;;;17.50;16.25;;;;;21.39;59.56;99703.84;5067446;28;45377;-52
2022/05/23 10:32:32;;;;;;;;;17.00;17.00;;;;;21.32;59.80;99707.75;5061262;28;45512;-50
2022/05/23 10:35:06;;;;;;;;;16.50;16.50;;;;;21.30;60.03;99707.16;5061390;28;47146;-49
2022/05/23 10:37:36;;;;;;;;;20.00;15.00;;;;;21.22;59.80;99716.50;5067030;28;45405;-53
2022/05/23 10:43:06;;;;;;;;;16.75;16.50;;;;;21.03;60.56;99707.75;5054092;28;45215;-52
2022/05/23 10:46:02;;;;;;;;;15.67;14.67;;;;;20.92;60.96;99708.59;5060491;28;46386;-50
2022/05/23 10:48:27;;;;;;;;;19.67;16.33;;;;;20.94;60.51;99698.34;5062863;28;45394;-52
2022/05/23 10:51:11;;;;;;;;;17.67;17.67;;;;;20.92;60.56;99703.19;5066901;28;45288;-50
2022/05/23 10:54:18;;;;;;;;;18.33;18.33;;;;;20.72;60.82;99675.75;5067050;28;45582;-49
2022/05/23 10:57:10;;;;;;;;;18.00;18.00;;;;;20.76;61.17;99693.94;5062039;28;46263;-51
2022/05/23 10:59:54;;;;;;;;;18.67;18.67;;;;;20.67;61.95;99693.50;5064512;28;45492;-52
2022/05/23 11:02:38;;;;;;;;;18.33;18.33;;;;;20.60;62.30;99694.69;5065237;28;45390;-48
2022/05/23 11:05:04;;;;;;;;;19.00;18.33;;;;;20.48;62.83;99702.84;5072212;27;45416;-49
2022/05/23 11:08:00;;;;;;;;;18.33;16.33;;;;;20.34;62.92;99723.81;5090025;27;45384;-51
2022/05/23 11:10:44;;;;;;;;;24.00;22.00;;;;;20.18;63.39;99732.63;5086101;27;45499;-48
2022/05/23 11:13:12;;;;;;;;;26.33;25.33;;;;;20.06;64.76;99700.22;5089281;27;45527;-51
2022/05/23 11:16:13;;;;;;;;;24.00;20.67;;;;;19.91;64.75;99694.47;5080169;27;45281;-50
2022/05/23 11:19:02;;;;;;;;;21.67;21.00;;;;;19.66;65.68;99686.56;5061338;28;45490;-51
2022/05/23 11:21:45;;;;;;;;;27.00;22.33;;;;;19.69;67.44;99711.22;5080227;28;45363;-51
2022/05/23 11:24:16;;;;;;;;;22.00;21.33;;;;;19.66;67.86;99708.97;5080249;28;45349;-51
2022/05/23 11:26:48;;;;;;;;;24.67;22.00;;;;;19.61;67.73;99708.03;5080489;28;45468;-52
2022/05/23 11:35:07;;;;;;;;;29.33;26.33;;;;;19.66;67.64;99708.97;5080166;28;45279;-53
2022/05/23 11:37:45;;;;;;;;;27.67;22.67;;;;;19.79;68.18;99707.94;5080241;28;45373;-52
2022/05/23 11:40:30;;;;;;;;;27.33;23.67;;;;;19.97;66.79;99717.81;5079741;28;47080;-53
2022/05/23 11:43:00;;;;;;;;;26.33;21.00;;;;;20.11;67.26;99711.16;5079549;28;45521;-52
2022/05/23 11:48:53;;;;;;;;;21.33;18.00;;;;;20.34;66.19;99718.41;5080028;28;45336;-52
2022/05/23 11:51:21;;;;;;;;;26.67;24.00;;;;;20.46;66.97;99718.41;5079737;27;45408;-52
2022/05/23 11:53:55;;;;;;;;;26.00;23.67;;;;;20.50;66.07;99710.69;5079705;28;45532;-52
2022/05/23 11:56:39;;;;;;;;;26.33;24.33;;;;;20.49;65.71;99722.56;5079755;27;45332;-51
2022/05/23 11:59:07;;;;;;;;;24.33;22.67;;;;;20.29;66.63;99714.78;5079810;27;45355;-52
2022/05/23 12:01:34;;;;;;;;;24.33;22.00;;;;;20.21;67.24;99721.34;5079256;27;45458;-52
2022/05/23 12:03:59;;;;;;;;;22.33;20.00;;;;;20.14;66.37;99726.03;5079252;27;45301;-49
2022/05/23 12:06:24;;;;;;;;;29.00;22.67;;;;;20.01;66.29;99729.78;5079189;28;45238;-54
2022/05/23 12:09:11;;;;;;;;;22.33;20.67;;;;;19.85;66.33;99727.78;5079676;28;45301;-52
2022/05/23 12:11:42;;;;;;;;;17.33;16.33;;;;;19.78;67.26;99733.28;5093592;27;46151;-53
2022/05/23 12:14:25;;;;;;;;;23.33;21.00;;;;;19.81;66.40;99727.44;5079336;27;45420;-51
2022/05/23 12:16:57;;;;;;;;;18.33;17.00;;;;;19.78;66.29;99733.28;5079154;28;45301;-54
2022/05/23 12:19:48;;;;;;;;;22.67;22.00;;;;;19.64;66.44;99735.38;5079513;27;45475;-53
2022/05/23 12:22:18;;;;;;;;;20.00;18.67;;;;;19.57;66.72;99744.56;5079097;27;46174;-51
2022/05/23 12:25:01;;;;;;;;;19.67;17.33;;;;;19.47;66.75;99739.75;5079070;27;45380;-52
2022/05/23 12:27:39;;;;;;;;;17.67;15.33;;;;;19.34;67.02;99731.81;5079262;28;45336;-53
2022/05/23 12:30:17;;;;;;;;;21.00;18.00;;;;;19.44;67.16;99748.28;5079370;28;45542;-52
2022/05/23 12:32:43;;;;;;;;;14.00;12.00;;;;;19.50;66.46;99749.22;5079060;27;45588;-51
2022/05/23 12:35:09;;;;;;;;;22.33;19.00;;;;;19.47;66.19;99747.00;5078815;27;45455;-52